sensor_id;sensor_type;location;lat;lon;timestamp;P1;durP1;ratioP1;P2;durP2;ratioP2
35418;SDS011;21525;41.240;16.500;2023-02-01T00:02:03;9.05;;;3.33;;
35418;SDS011;21525;41.240;16.500;2023-02-01T00:04:29;6.97;;;3.30;;
35418;SDS011;21525;41.240;16.500;2023-02-01T00:06:55;6.47;;;2.80;;
35418;SDS011;21525;41.240;16.500;2023-02-01T00:09:21;4.95;;;2.80;;
35418;SDS011;21525;41.240;16.500;2023-02-01T00:11:47;142.48;;;12.10;;
35418;SDS011;21525;41.240;16.500;2023-02-01T00:14:13;12.60;;;3.40;;
35418;SDS011;21525;41.240;16.500;2023-02-01T00:16:39;9.23;;;3.10;;
35418;SDS011;21525;41.240;16.500;2023-02-01T00:19:09;8.95;;;2.42;;
35418;SDS011;21525;41.240;16.500;2023-02-01T00:21:39;7.90;;;2.75;;
35418;SDS011;21525;41.240;16.500;2023-02-01T00:24:05;11.07;;;2.30;;
35418;SDS011;21525;41.240;16.500;2023-02-01T00:26:36;6.72;;;2.30;;
35418;SDS011;21525;41.240;16.500;2023-02-01T00:29:09;4.93;;;2.80;;
35418;SDS011;21525;41.240;16.500;2023-02-01T00:31:37;5.60;;;2.10;;
35418;SDS011;21525;41.240;16.500;2023-02-01T00:34:03;4.53;;;2.50;;
35418;SDS011;21525;41.240;16.500;2023-02-01T00:36:29;7.40;;;2.42;;
35418;SDS011;21525;41.240;16.500;2023-02-01T00:38:55;5.55;;;2.08;;
35418;SDS011;21525;41.240;16.500;2023-02-01T00:41:21;4.05;;;2.15;;
35418;SDS011;21525;41.240;16.500;2023-02-01T00:43:49;7.65;;;2.13;;
35418;SDS011;21525;41.240;16.500;2023-02-01T00:46:16;4.43;;;1.73;;
35418;SDS011;21525;41.240;16.500;2023-02-01T00:48:43;10.90;;;2.65;;
35418;SDS011;21525;41.240;16.500;2023-02-01T00:51:11;4.75;;;2.33;;
35418;SDS011;21525;41.240;16.500;2023-02-01T00:53:39;5.13;;;2.08;;
35418;SDS011;21525;41.240;16.500;2023-02-01T00:56:05;2.45;;;1.60;;
35418;SDS011;21525;41.240;16.500;2023-02-01T00:58:32;5.15;;;1.70;;
35418;SDS011;21525;41.240;16.500;2023-02-01T01:01:09;4.95;;;1.60;;
35418;SDS011;21525;41.240;16.500;2023-02-01T01:03:41;9.10;;;2.53;;
35418;SDS011;21525;41.240;16.500;2023-02-01T01:06:10;6.10;;;1.90;;
35418;SDS011;21525;41.240;16.500;2023-02-01T01:08:37;6.15;;;1.95;;
35418;SDS011;21525;41.240;16.500;2023-02-01T01:11:08;3.50;;;1.67;;
35418;SDS011;21525;41.240;16.500;2023-02-01T01:13:39;5.53;;;2.13;;
35418;SDS011;21525;41.240;16.500;2023-02-01T01:16:06;5.55;;;1.90;;
35418;SDS011;21525;41.240;16.500;2023-02-01T01:18:33;3.25;;;1.88;;
35418;SDS011;21525;41.240;16.500;2023-02-01T01:21:00;3.28;;;1.80;;
35418;SDS011;21525;41.240;16.500;2023-02-01T01:23:26;3.88;;;1.73;;
35418;SDS011;21525;41.240;16.500;2023-02-01T01:25:52;4.63;;;1.80;;
35418;SDS011;21525;41.240;16.500;2023-02-01T01:28:18;2.78;;;1.70;;
35418;SDS011;21525;41.240;16.500;2023-02-01T01:30:44;3.38;;;1.60;;
35418;SDS011;21525;41.240;16.500;2023-02-01T01:33:10;3.40;;;1.90;;
35418;SDS011;21525;41.240;16.500;2023-02-01T01:35:36;4.32;;;1.95;;
35418;SDS011;21525;41.240;16.500;2023-02-01T01:38:02;7.15;;;2.25;;
35418;SDS011;21525;41.240;16.500;2023-02-01T01:40:28;5.68;;;1.90;;
35418;SDS011;21525;41.240;16.500;2023-02-01T01:42:56;3.78;;;2.00;;
35418;SDS011;21525;41.240;16.500;2023-02-01T01:47:56;4.93;;;2.30;;
35418;SDS011;21525;41.240;16.500;2023-02-01T01:50:24;5.07;;;2.00;;
35418;SDS011;21525;41.240;16.500;2023-02-01T01:53:05;5.60;;;2.45;;
35418;SDS011;21525;41.240;16.500;2023-02-01T01:55:36;4.25;;;2.38;;
35418;SDS011;21525;41.240;16.500;2023-02-01T01:58:07;4.57;;;1.80;;
35418;SDS011;21525;41.240;16.500;2023-02-01T02:00:36;4.80;;;1.70;;
35418;SDS011;21525;41.240;16.500;2023-02-01T02:03:07;4.82;;;2.03;;
35418;SDS011;21525;41.240;16.500;2023-02-01T02:05:46;3.90;;;1.90;;
35418;SDS011;21525;41.240;16.500;2023-02-01T02:08:15;4.45;;;1.90;;
35418;SDS011;21525;41.240;16.500;2023-02-01T02:10:46;5.03;;;1.90;;
35418;SDS011;21525;41.240;16.500;2023-02-01T02:13:35;3.20;;;1.50;;
35418;SDS011;21525;41.240;16.500;2023-02-01T02:18:55;6.43;;;2.25;;
35418;SDS011;21525;41.240;16.500;2023-02-01T02:22:05;3.45;;;1.50;;
35418;SDS011;21525;41.240;16.500;2023-02-01T02:35:29;2.45;;;1.48;;
35418;SDS011;21525;41.240;16.500;2023-02-01T02:38:10;4.82;;;1.73;;
35418;SDS011;21525;41.240;16.500;2023-02-01T02:40:49;3.65;;;1.45;;
35418;SDS011;21525;41.240;16.500;2023-02-01T02:43:31;1.80;;;1.40;;
35418;SDS011;21525;41.240;16.500;2023-02-01T02:46:25;3.00;;;1.38;;
35418;SDS011;21525;41.240;16.500;2023-02-01T02:49:34;2.75;;;1.10;;
35418;SDS011;21525;41.240;16.500;2023-02-01T02:52:05;7.28;;;2.70;;
35418;SDS011;21525;41.240;16.500;2023-02-01T02:54:56;6.68;;;3.20;;
35418;SDS011;21525;41.240;16.500;2023-02-01T02:57:25;8.40;;;2.95;;
35418;SDS011;21525;41.240;16.500;2023-02-01T03:00:15;11.23;;;5.05;;
35418;SDS011;21525;41.240;16.500;2023-02-01T03:03:03;26.80;;;12.02;;
35418;SDS011;21525;41.240;16.500;2023-02-01T03:05:48;37.50;;;14.57;;
35418;SDS011;21525;41.240;16.500;2023-02-01T03:08:22;43.28;;;17.35;;
35418;SDS011;21525;41.240;16.500;2023-02-01T03:13:51;7.97;;;4.10;;
35418;SDS011;21525;41.240;16.500;2023-02-01T03:21:53;5.97;;;2.92;;
35418;SDS011;21525;41.240;16.500;2023-02-01T03:24:42;4.22;;;2.03;;
35418;SDS011;21525;41.240;16.500;2023-02-01T03:29:59;4.82;;;2.13;;
35418;SDS011;21525;41.240;16.500;2023-02-01T03:32:32;3.80;;;2.00;;
35418;SDS011;21525;41.240;16.500;2023-02-01T03:35:19;5.95;;;2.05;;
35418;SDS011;21525;41.240;16.500;2023-02-01T03:37:53;4.63;;;2.65;;
35418;SDS011;21525;41.240;16.500;2023-02-01T03:40:24;4.07;;;1.90;;
35418;SDS011;21525;41.240;16.500;2023-02-01T03:42:52;3.45;;;2.30;;
35418;SDS011;21525;41.240;16.500;2023-02-01T03:45:26;8.18;;;4.00;;
35418;SDS011;21525;41.240;16.500;2023-02-01T03:47:56;3.92;;;2.60;;
35418;SDS011;21525;41.240;16.500;2023-02-01T03:50:25;4.35;;;1.83;;
35418;SDS011;21525;41.240;16.500;2023-02-01T03:52:55;3.30;;;1.30;;
35418;SDS011;21525;41.240;16.500;2023-02-01T03:55:25;3.90;;;1.55;;
35418;SDS011;21525;41.240;16.500;2023-02-01T03:58:04;4.70;;;1.65;;
35418;SDS011;21525;41.240;16.500;2023-02-01T04:00:34;3.55;;;1.67;;
35418;SDS011;21525;41.240;16.500;2023-02-01T04:03:01;5.13;;;2.45;;
35418;SDS011;21525;41.240;16.500;2023-02-01T04:05:29;4.53;;;2.70;;
35418;SDS011;21525;41.240;16.500;2023-02-01T04:08:00;5.55;;;1.80;;
35418;SDS011;21525;41.240;16.500;2023-02-01T04:10:26;4.20;;;1.85;;
35418;SDS011;21525;41.240;16.500;2023-02-01T04:12:51;3.85;;;2.20;;
35418;SDS011;21525;41.240;16.500;2023-02-01T04:15:17;4.57;;;2.20;;
35418;SDS011;21525;41.240;16.500;2023-02-01T04:17:44;4.55;;;1.90;;
35418;SDS011;21525;41.240;16.500;2023-02-01T04:20:09;2.55;;;1.40;;
35418;SDS011;21525;41.240;16.500;2023-02-01T04:22:36;3.13;;;1.70;;
35418;SDS011;21525;41.240;16.500;2023-02-01T04:25:02;10.85;;;2.08;;
35418;SDS011;21525;41.240;16.500;2023-02-01T04:29:56;4.10;;;1.70;;
35418;SDS011;21525;41.240;16.500;2023-02-01T04:32:22;4.75;;;1.80;;
35418;SDS011;21525;41.240;16.500;2023-02-01T04:34:48;3.65;;;1.42;;
35418;SDS011;21525;41.240;16.500;2023-02-01T04:37:14;4.95;;;1.63;;
35418;SDS011;21525;41.240;16.500;2023-02-01T04:39:40;7.85;;;1.77;;
35418;SDS011;21525;41.240;16.500;2023-02-01T04:42:05;5.85;;;2.13;;
35418;SDS011;21525;41.240;16.500;2023-02-01T04:44:31;8.05;;;2.60;;
35418;SDS011;21525;41.240;16.500;2023-02-01T04:46:57;4.80;;;2.00;;
35418;SDS011;21525;41.240;16.500;2023-02-01T04:49:23;5.00;;;2.60;;
35418;SDS011;21525;41.240;16.500;2023-02-01T04:51:51;6.30;;;2.20;;
35418;SDS011;21525;41.240;16.500;2023-02-01T04:54:17;5.63;;;2.30;;
35418;SDS011;21525;41.240;16.500;2023-02-01T04:56:43;3.80;;;2.22;;
35418;SDS011;21525;41.240;16.500;2023-02-01T04:59:10;4.40;;;2.28;;
35418;SDS011;21525;41.240;16.500;2023-02-01T05:01:36;7.25;;;2.80;;
35418;SDS011;21525;41.240;16.500;2023-02-01T05:04:02;6.00;;;2.42;;
35418;SDS011;21525;41.240;16.500;2023-02-01T05:06:28;5.32;;;2.08;;
35418;SDS011;21525;41.240;16.500;2023-02-01T05:08:54;5.85;;;2.72;;
35418;SDS011;21525;41.240;16.500;2023-02-01T05:11:20;4.97;;;2.50;;
35418;SDS011;21525;41.240;16.500;2023-02-01T05:14:04;6.35;;;2.85;;
35418;SDS011;21525;41.240;16.500;2023-02-01T05:16:30;6.75;;;2.70;;
35418;SDS011;21525;41.240;16.500;2023-02-01T05:18:56;4.88;;;2.80;;
35418;SDS011;21525;41.240;16.500;2023-02-01T05:21:22;8.48;;;2.95;;
35418;SDS011;21525;41.240;16.500;2023-02-01T05:23:47;7.28;;;3.13;;
35418;SDS011;21525;41.240;16.500;2023-02-01T05:26:31;7.85;;;3.22;;
35418;SDS011;21525;41.240;16.500;2023-02-01T05:28:57;5.63;;;2.83;;
35418;SDS011;21525;41.240;16.500;2023-02-01T05:31:23;4.75;;;2.55;;
35418;SDS011;21525;41.240;16.500;2023-02-01T05:33:49;5.10;;;2.70;;
35418;SDS011;21525;41.240;16.500;2023-02-01T05:36:15;7.35;;;3.15;;
35418;SDS011;21525;41.240;16.500;2023-02-01T05:38:41;6.63;;;3.65;;
35418;SDS011;21525;41.240;16.500;2023-02-01T05:41:07;10.98;;;3.90;;
35418;SDS011;21525;41.240;16.500;2023-02-01T05:43:33;10.57;;;3.35;;
35418;SDS011;21525;41.240;16.500;2023-02-01T05:45:58;6.65;;;3.22;;
35418;SDS011;21525;41.240;16.500;2023-02-01T05:48:24;6.95;;;2.92;;
35418;SDS011;21525;41.240;16.500;2023-02-01T05:50:50;6.60;;;3.72;;
35418;SDS011;21525;41.240;16.500;2023-02-01T05:53:16;9.38;;;3.60;;
35418;SDS011;21525;41.240;16.500;2023-02-01T05:55:42;12.48;;;3.70;;
35418;SDS011;21525;41.240;16.500;2023-02-01T05:58:08;10.32;;;3.25;;
35418;SDS011;21525;41.240;16.500;2023-02-01T06:00:34;7.60;;;3.70;;
35418;SDS011;21525;41.240;16.500;2023-02-01T06:03:00;11.85;;;4.50;;
35418;SDS011;21525;41.240;16.500;2023-02-01T06:05:26;10.05;;;4.60;;
35418;SDS011;21525;41.240;16.500;2023-02-01T06:07:52;9.77;;;4.95;;
35418;SDS011;21525;41.240;16.500;2023-02-01T06:10:19;9.52;;;4.43;;
35418;SDS011;21525;41.240;16.500;2023-02-01T06:12:45;11.38;;;5.25;;
35418;SDS011;21525;41.240;16.500;2023-02-01T06:15:12;8.68;;;4.82;;
35418;SDS011;21525;41.240;16.500;2023-02-01T06:17:38;14.07;;;4.68;;
35418;SDS011;21525;41.240;16.500;2023-02-01T06:20:06;9.88;;;5.28;;
35418;SDS011;21525;41.240;16.500;2023-02-01T06:22:33;13.80;;;5.28;;
35418;SDS011;21525;41.240;16.500;2023-02-01T06:25:02;11.02;;;5.85;;
35418;SDS011;21525;41.240;16.500;2023-02-01T06:27:31;16.40;;;6.75;;
35418;SDS011;21525;41.240;16.500;2023-02-01T06:29:57;22.52;;;8.88;;
35418;SDS011;21525;41.240;16.500;2023-02-01T06:32:23;24.23;;;10.60;;
35418;SDS011;21525;41.240;16.500;2023-02-01T06:34:49;25.92;;;12.52;;
35418;SDS011;21525;41.240;16.500;2023-02-01T06:37:15;30.52;;;16.77;;
35418;SDS011;21525;41.240;16.500;2023-02-01T06:39:41;35.47;;;20.73;;
35418;SDS011;21525;41.240;16.500;2023-02-01T06:42:06;46.70;;;26.85;;
35418;SDS011;21525;41.240;16.500;2023-02-01T06:44:32;60.22;;;32.97;;
35418;SDS011;21525;41.240;16.500;2023-02-01T06:46:58;55.08;;;34.10;;
35418;SDS011;21525;41.240;16.500;2023-02-01T06:49:24;48.70;;;28.73;;
35418;SDS011;21525;41.240;16.500;2023-02-01T06:51:49;40.25;;;25.20;;
35418;SDS011;21525;41.240;16.500;2023-02-01T06:54:15;35.40;;;21.95;;
35418;SDS011;21525;41.240;16.500;2023-02-01T06:56:41;35.55;;;21.63;;
35418;SDS011;21525;41.240;16.500;2023-02-01T06:59:07;31.27;;;18.50;;
35418;SDS011;21525;41.240;16.500;2023-02-01T07:01:33;35.70;;;20.48;;
35418;SDS011;21525;41.240;16.500;2023-02-01T07:04:00;38.40;;;21.27;;
35418;SDS011;21525;41.240;16.500;2023-02-01T07:06:31;43.33;;;24.88;;
35418;SDS011;21525;41.240;16.500;2023-02-01T07:08:57;38.58;;;24.17;;
35418;SDS011;21525;41.240;16.500;2023-02-01T07:11:23;53.35;;;28.55;;
35418;SDS011;21525;41.240;16.500;2023-02-01T07:13:49;47.25;;;28.17;;
35418;SDS011;21525;41.240;16.500;2023-02-01T07:16:16;49.80;;;30.50;;
35418;SDS011;21525;41.240;16.500;2023-02-01T07:18:43;103.03;;;37.38;;
35418;SDS011;21525;41.240;16.500;2023-02-01T07:21:09;78.40;;;36.50;;
35418;SDS011;21525;41.240;16.500;2023-02-01T07:23:35;63.13;;;35.85;;
35418;SDS011;21525;41.240;16.500;2023-02-01T07:26:04;53.10;;;36.08;;
35418;SDS011;21525;41.240;16.500;2023-02-01T07:28:33;52.22;;;32.55;;
35418;SDS011;21525;41.240;16.500;2023-02-01T07:31:07;43.75;;;30.95;;
35418;SDS011;21525;41.240;16.500;2023-02-01T07:33:35;43.97;;;30.50;;
35418;SDS011;21525;41.240;16.500;2023-02-01T07:36:05;50.42;;;32.60;;
35418;SDS011;21525;41.240;16.500;2023-02-01T07:38:32;51.35;;;33.50;;
35418;SDS011;21525;41.240;16.500;2023-02-01T07:40:58;47.40;;;32.78;;
35418;SDS011;21525;41.240;16.500;2023-02-01T07:43:25;53.25;;;34.72;;
35418;SDS011;21525;41.240;16.500;2023-02-01T07:45:52;49.28;;;30.52;;
35418;SDS011;21525;41.240;16.500;2023-02-01T07:48:19;43.50;;;31.50;;
35418;SDS011;21525;41.240;16.500;2023-02-01T07:50:45;41.05;;;28.15;;
35418;SDS011;21525;41.240;16.500;2023-02-01T07:53:11;41.35;;;26.92;;
35418;SDS011;21525;41.240;16.500;2023-02-01T07:55:38;42.28;;;28.65;;
35418;SDS011;21525;41.240;16.500;2023-02-01T07:58:04;43.40;;;29.65;;
35418;SDS011;21525;41.240;16.500;2023-02-01T08:00:30;38.78;;;26.30;;
35418;SDS011;21525;41.240;16.500;2023-02-01T08:03:15;33.40;;;23.45;;
35418;SDS011;21525;41.240;16.500;2023-02-01T08:05:41;26.85;;;20.77;;
35418;SDS011;21525;41.240;16.500;2023-02-01T08:08:07;35.50;;;20.88;;
35418;SDS011;21525;41.240;16.500;2023-02-01T08:10:32;33.25;;;20.33;;
35418;SDS011;21525;41.240;16.500;2023-02-01T08:12:59;30.88;;;18.15;;
35418;SDS011;21525;41.240;16.500;2023-02-01T08:15:26;32.50;;;17.15;;
35418;SDS011;21525;41.240;16.500;2023-02-01T08:17:53;44.05;;;17.27;;
35418;SDS011;21525;41.240;16.500;2023-02-01T08:20:22;25.80;;;15.65;;
35418;SDS011;21525;41.240;16.500;2023-02-01T08:22:49;52.45;;;18.85;;
35418;SDS011;21525;41.240;16.500;2023-02-01T08:25:16;30.97;;;15.33;;
35418;SDS011;21525;41.240;16.500;2023-02-01T08:27:42;67.50;;;16.60;;
35418;SDS011;21525;41.240;16.500;2023-02-01T08:30:08;49.70;;;14.93;;
35418;SDS011;21525;41.240;16.500;2023-02-01T08:32:36;45.15;;;14.57;;
35418;SDS011;21525;41.240;16.500;2023-02-01T08:35:05;29.17;;;13.02;;
35418;SDS011;21525;41.240;16.500;2023-02-01T08:37:31;65.35;;;16.00;;
35418;SDS011;21525;41.240;16.500;2023-02-01T08:39:57;26.17;;;14.05;;
35418;SDS011;21525;41.240;16.500;2023-02-01T08:42:23;31.45;;;11.60;;
35418;SDS011;21525;41.240;16.500;2023-02-01T08:45:08;34.78;;;11.07;;
35418;SDS011;21525;41.240;16.500;2023-02-01T08:47:34;44.22;;;16.50;;
35418;SDS011;21525;41.240;16.500;2023-02-01T08:50:00;32.08;;;11.10;;
35418;SDS011;21525;41.240;16.500;2023-02-01T08:52:26;27.35;;;10.07;;
35418;SDS011;21525;41.240;16.500;2023-02-01T08:54:52;18.13;;;7.05;;
35418;SDS011;21525;41.240;16.500;2023-02-01T08:57:18;12.00;;;7.15;;
35418;SDS011;21525;41.240;16.500;2023-02-01T08:59:44;15.07;;;6.25;;
35418;SDS011;21525;41.240;16.500;2023-02-01T09:02:13;16.13;;;6.88;;
35418;SDS011;21525;41.240;16.500;2023-02-01T09:04:40;10.57;;;5.63;;
35418;SDS011;21525;41.240;16.500;2023-02-01T09:07:07;14.52;;;6.70;;
35418;SDS011;21525;41.240;16.500;2023-02-01T09:09:36;13.60;;;6.18;;
35418;SDS011;21525;41.240;16.500;2023-02-01T09:12:02;10.15;;;6.43;;
35418;SDS011;21525;41.240;16.500;2023-02-01T09:14:28;13.32;;;5.28;;
35418;SDS011;21525;41.240;16.500;2023-02-01T09:16:55;9.38;;;5.28;;
35418;SDS011;21525;41.240;16.500;2023-02-01T09:19:20;9.18;;;4.78;;
35418;SDS011;21525;41.240;16.500;2023-02-01T09:21:46;12.60;;;4.90;;
35418;SDS011;21525;41.240;16.500;2023-02-01T09:24:12;31.13;;;9.05;;
35418;SDS011;21525;41.240;16.500;2023-02-01T09:26:38;13.77;;;7.35;;
35418;SDS011;21525;41.240;16.500;2023-02-01T09:29:06;22.75;;;7.47;;
35418;SDS011;21525;41.240;16.500;2023-02-01T09:31:38;18.75;;;7.55;;
35418;SDS011;21525;41.240;16.500;2023-02-01T09:34:05;16.65;;;7.20;;
35418;SDS011;21525;41.240;16.500;2023-02-01T09:36:31;12.90;;;7.47;;
35418;SDS011;21525;41.240;16.500;2023-02-01T09:38:57;15.35;;;6.95;;
35418;SDS011;21525;41.240;16.500;2023-02-01T09:47:13;13.60;;;4.85;;
35418;SDS011;21525;41.240;16.500;2023-02-01T09:49:47;16.35;;;5.28;;
35418;SDS011;21525;41.240;16.500;2023-02-01T09:52:15;12.77;;;5.18;;
35418;SDS011;21525;41.240;16.500;2023-02-01T09:55:04;13.68;;;5.10;;
35418;SDS011;21525;41.240;16.500;2023-02-01T10:00:50;11.57;;;5.07;;
35418;SDS011;21525;41.240;16.500;2023-02-01T10:03:18;16.98;;;6.80;;
35418;SDS011;21525;41.240;16.500;2023-02-01T10:10:57;14.48;;;8.00;;
35418;SDS011;21525;41.240;16.500;2023-02-01T10:16:22;11.52;;;6.35;;
35418;SDS011;21525;41.240;16.500;2023-02-01T10:22:00;11.23;;;4.82;;
35418;SDS011;21525;41.240;16.500;2023-02-01T10:29:36;11.25;;;5.20;;
35418;SDS011;21525;41.240;16.500;2023-02-01T10:32:14;9.30;;;5.03;;
35418;SDS011;21525;41.240;16.500;2023-02-01T10:34:42;11.25;;;5.20;;
35418;SDS011;21525;41.240;16.500;2023-02-01T10:37:17;10.23;;;5.03;;
35418;SDS011;21525;41.240;16.500;2023-02-01T10:39:49;13.50;;;5.40;;
35418;SDS011;21525;41.240;16.500;2023-02-01T10:42:16;13.52;;;7.65;;
35418;SDS011;21525;41.240;16.500;2023-02-01T10:44:45;15.32;;;9.25;;
35418;SDS011;21525;41.240;16.500;2023-02-01T10:47:13;21.47;;;9.40;;
35418;SDS011;21525;41.240;16.500;2023-02-01T10:49:43;13.10;;;7.93;;
35418;SDS011;21525;41.240;16.500;2023-02-01T10:53:00;14.13;;;8.63;;
35418;SDS011;21525;41.240;16.500;2023-02-01T10:58:03;16.02;;;8.45;;
35418;SDS011;21525;41.240;16.500;2023-02-01T11:00:37;16.77;;;10.10;;
35418;SDS011;21525;41.240;16.500;2023-02-01T11:03:19;22.98;;;10.32;;
35418;SDS011;21525;41.240;16.500;2023-02-01T11:06:19;15.55;;;9.60;;
35418;SDS011;21525;41.240;16.500;2023-02-01T11:08:51;14.63;;;8.93;;
35418;SDS011;21525;41.240;16.500;2023-02-01T11:11:19;22.20;;;9.02;;
35418;SDS011;21525;41.240;16.500;2023-02-01T11:13:51;13.45;;;8.20;;
35418;SDS011;21525;41.240;16.500;2023-02-01T11:16:36;19.83;;;8.75;;
35418;SDS011;21525;41.240;16.500;2023-02-01T11:19:04;14.87;;;8.37;;
35418;SDS011;21525;41.240;16.500;2023-02-01T11:21:30;14.95;;;7.78;;
35418;SDS011;21525;41.240;16.500;2023-02-01T11:24:02;13.05;;;7.47;;
35418;SDS011;21525;41.240;16.500;2023-02-01T11:26:38;19.85;;;8.27;;
35418;SDS011;21525;41.240;16.500;2023-02-01T11:29:41;14.77;;;6.57;;
35418;SDS011;21525;41.240;16.500;2023-02-01T11:32:09;15.43;;;8.13;;
35418;SDS011;21525;41.240;16.500;2023-02-01T11:34:38;12.77;;;7.55;;
35418;SDS011;21525;41.240;16.500;2023-02-01T11:37:05;14.85;;;8.02;;
35418;SDS011;21525;41.240;16.500;2023-02-01T11:39:43;12.20;;;7.50;;
35418;SDS011;21525;41.240;16.500;2023-02-01T11:42:26;14.93;;;7.82;;
35418;SDS011;21525;41.240;16.500;2023-02-01T11:47:42;20.27;;;9.93;;
35418;SDS011;21525;41.240;16.500;2023-02-01T11:50:46;19.95;;;10.45;;
35418;SDS011;21525;41.240;16.500;2023-02-01T11:55:59;21.15;;;11.38;;
35418;SDS011;21525;41.240;16.500;2023-02-01T12:06:51;16.25;;;8.98;;
35418;SDS011;21525;41.240;16.500;2023-02-01T12:12:19;10.57;;;5.13;;
35418;SDS011;21525;41.240;16.500;2023-02-01T12:17:47;13.52;;;8.75;;
35418;SDS011;21525;41.240;16.500;2023-02-01T12:25:55;14.48;;;8.40;;
35418;SDS011;21525;41.240;16.500;2023-02-01T12:39:31;13.45;;;7.13;;
35418;SDS011;21525;41.240;16.500;2023-02-01T12:47:16;40.47;;;7.57;;
35418;SDS011;21525;41.240;16.500;2023-02-01T12:49:50;17.42;;;5.45;;
35418;SDS011;21525;41.240;16.500;2023-02-01T12:52:51;9.38;;;4.57;;
35418;SDS011;21525;41.240;16.500;2023-02-01T12:55:22;9.95;;;4.57;;
35418;SDS011;21525;41.240;16.500;2023-02-01T13:00:30;23.25;;;5.13;;
35418;SDS011;21525;41.240;16.500;2023-02-01T13:05:58;12.07;;;4.10;;
35418;SDS011;21525;41.240;16.500;2023-02-01T13:08:43;8.10;;;3.80;;
35418;SDS011;21525;41.240;16.500;2023-02-01T13:11:33;8.07;;;3.75;;
35418;SDS011;21525;41.240;16.500;2023-02-01T13:16:34;8.52;;;4.70;;
35418;SDS011;21525;41.240;16.500;2023-02-01T13:22:00;13.30;;;3.75;;
35418;SDS011;21525;41.240;16.500;2023-02-01T13:24:40;8.55;;;4.05;;
35418;SDS011;21525;41.240;16.500;2023-02-01T13:27:12;8.73;;;4.20;;
35418;SDS011;21525;41.240;16.500;2023-02-01T13:29:42;9.18;;;3.70;;
35418;SDS011;21525;41.240;16.500;2023-02-01T13:45:34;8.85;;;4.28;;
35418;SDS011;21525;41.240;16.500;2023-02-01T13:48:03;17.15;;;5.75;;
35418;SDS011;21525;41.240;16.500;2023-02-01T13:50:32;14.10;;;6.53;;
35418;SDS011;21525;41.240;16.500;2023-02-01T13:53:03;12.30;;;6.30;;
35418;SDS011;21525;41.240;16.500;2023-02-01T13:58:32;11.50;;;5.18;;
35418;SDS011;21525;41.240;16.500;2023-02-01T14:03:52;12.63;;;4.80;;
35418;SDS011;21525;41.240;16.500;2023-02-01T14:21:46;7.88;;;4.35;;
35418;SDS011;21525;41.240;16.500;2023-02-01T14:24:32;11.07;;;4.60;;
35418;SDS011;21525;41.240;16.500;2023-02-01T14:27:01;8.13;;;4.32;;
35418;SDS011;21525;41.240;16.500;2023-02-01T14:29:42;10.25;;;5.05;;
35418;SDS011;21525;41.240;16.500;2023-02-01T14:32:22;12.48;;;4.75;;
35418;SDS011;21525;41.240;16.500;2023-02-01T14:35:00;10.55;;;5.13;;
35418;SDS011;21525;41.240;16.500;2023-02-01T14:37:31;10.35;;;4.72;;
35418;SDS011;21525;41.240;16.500;2023-02-01T14:52:50;11.57;;;5.63;;
35418;SDS011;21525;41.240;16.500;2023-02-01T14:55:33;9.63;;;4.55;;
35418;SDS011;21525;41.240;16.500;2023-02-01T14:58:05;11.07;;;4.97;;
35418;SDS011;21525;41.240;16.500;2023-02-01T15:00:57;9.77;;;5.57;;
35418;SDS011;21525;41.240;16.500;2023-02-01T15:03:34;12.88;;;6.38;;
35418;SDS011;21525;41.240;16.500;2023-02-01T15:06:19;14.88;;;5.80;;
35418;SDS011;21525;41.240;16.500;2023-02-01T15:08:46;11.23;;;5.95;;
35418;SDS011;21525;41.240;16.500;2023-02-01T15:11:13;11.70;;;6.93;;
35418;SDS011;21525;41.240;16.500;2023-02-01T15:16:14;18.52;;;6.45;;
35418;SDS011;21525;41.240;16.500;2023-02-01T15:18:41;13.63;;;5.75;;
35418;SDS011;21525;41.240;16.500;2023-02-01T15:21:20;13.45;;;5.82;;
35418;SDS011;21525;41.240;16.500;2023-02-01T15:23:48;10.45;;;5.70;;
35418;SDS011;21525;41.240;16.500;2023-02-01T15:26:25;9.20;;;4.88;;
35418;SDS011;21525;41.240;16.500;2023-02-01T15:28:56;8.85;;;4.47;;
35418;SDS011;21525;41.240;16.500;2023-02-01T15:31:36;10.00;;;5.13;;
35418;SDS011;21525;41.240;16.500;2023-02-01T15:34:03;9.05;;;5.05;;
35418;SDS011;21525;41.240;16.500;2023-02-01T15:36:29;12.50;;;5.15;;
35418;SDS011;21525;41.240;16.500;2023-02-01T15:44:28;20.38;;;10.10;;
35418;SDS011;21525;41.240;16.500;2023-02-01T15:46:57;17.15;;;9.98;;
35418;SDS011;21525;41.240;16.500;2023-02-01T15:49:28;14.25;;;8.05;;
35418;SDS011;21525;41.240;16.500;2023-02-01T15:51:57;15.30;;;8.07;;
35418;SDS011;21525;41.240;16.500;2023-02-01T15:56:52;17.23;;;6.30;;
35418;SDS011;21525;41.240;16.500;2023-02-01T15:59:24;13.25;;;6.38;;
35418;SDS011;21525;41.240;16.500;2023-02-01T16:01:54;11.00;;;5.90;;
35418;SDS011;21525;41.240;16.500;2023-02-01T16:04:22;9.57;;;5.30;;
35418;SDS011;21525;41.240;16.500;2023-02-01T16:06:53;11.45;;;4.90;;
35418;SDS011;21525;41.240;16.500;2023-02-01T16:10:17;12.07;;;5.05;;
35418;SDS011;21525;41.240;16.500;2023-02-01T16:12:31;11.93;;;5.18;;
35418;SDS011;21525;41.240;16.500;2023-02-01T16:15:11;12.23;;;4.95;;
35418;SDS011;21525;41.240;16.500;2023-02-01T16:17:37;14.18;;;5.85;;
35418;SDS011;21525;41.240;16.500;2023-02-01T16:20:03;10.98;;;5.60;;
35418;SDS011;21525;41.240;16.500;2023-02-01T16:22:29;17.60;;;6.10;;
35418;SDS011;21525;41.240;16.500;2023-02-01T16:24:55;12.90;;;6.03;;
35418;SDS011;21525;41.240;16.500;2023-02-01T16:27:22;16.98;;;7.57;;
35418;SDS011;21525;41.240;16.500;2023-02-01T16:29:48;13.45;;;7.72;;
35418;SDS011;21525;41.240;16.500;2023-02-01T16:32:18;18.08;;;7.55;;
35418;SDS011;21525;41.240;16.500;2023-02-01T16:34:46;12.43;;;6.57;;
35418;SDS011;21525;41.240;16.500;2023-02-01T16:37:13;18.85;;;7.75;;
35418;SDS011;21525;41.240;16.500;2023-02-01T16:39:45;15.20;;;7.63;;
35418;SDS011;21525;41.240;16.500;2023-02-01T16:42:11;16.35;;;8.32;;
35418;SDS011;21525;41.240;16.500;2023-02-01T16:44:38;18.83;;;10.60;;
35418;SDS011;21525;41.240;16.500;2023-02-01T16:47:10;16.88;;;8.70;;
35418;SDS011;21525;41.240;16.500;2023-02-01T16:49:47;15.90;;;9.55;;
35418;SDS011;21525;41.240;16.500;2023-02-01T16:52:21;19.92;;;10.85;;
35418;SDS011;21525;41.240;16.500;2023-02-01T16:54:49;19.15;;;11.27;;
35418;SDS011;21525;41.240;16.500;2023-02-01T16:57:15;19.55;;;10.48;;
35418;SDS011;21525;41.240;16.500;2023-02-01T16:59:43;21.23;;;10.82;;
35418;SDS011;21525;41.240;16.500;2023-02-01T17:02:12;19.33;;;10.30;;
35418;SDS011;21525;41.240;16.500;2023-02-01T17:04:39;23.20;;;13.50;;
35418;SDS011;21525;41.240;16.500;2023-02-01T17:07:06;22.70;;;14.25;;
35418;SDS011;21525;41.240;16.500;2023-02-01T17:09:35;27.13;;;15.25;;
35418;SDS011;21525;41.240;16.500;2023-02-01T17:12:02;27.75;;;14.18;;
35418;SDS011;21525;41.240;16.500;2023-02-01T17:14:30;24.48;;;15.25;;
35418;SDS011;21525;41.240;16.500;2023-02-01T17:17:00;25.77;;;16.35;;
35418;SDS011;21525;41.240;16.500;2023-02-01T17:19:26;26.23;;;16.77;;
35418;SDS011;21525;41.240;16.500;2023-02-01T17:21:53;28.45;;;17.42;;
35418;SDS011;21525;41.240;16.500;2023-02-01T17:24:22;28.65;;;18.25;;
35418;SDS011;21525;41.240;16.500;2023-02-01T17:29:16;27.73;;;14.90;;
35418;SDS011;21525;41.240;16.500;2023-02-01T17:31:44;23.27;;;14.07;;
35418;SDS011;21525;41.240;16.500;2023-02-01T17:34:13;28.30;;;16.90;;